Time;durP1;ratioP1;P1;durP2;ratioP2;P2;SDS_P1;SDS_P2;PMS_P1;PMS_P2;Temp;Humidity;BMP_temperature;BMP_pressure;BME280_temperature;BME280_humidity;BME280_pressure;Samples;Min_cycle;Max_cycle;Signal;HPM_P1;HPM_P2
2024/02/07 00:00:42;;;;;;;11.17;2.73;;;21.80;70.40;;;;;;5070561;28;20191;-73
2024/02/07 00:03:09;;;;;;;10.57;2.00;;;21.70;69.70;;;;;;5065825;28;20306;-73
2024/02/07 00:05:37;;;;;;;10.20;2.73;;;21.80;69.40;;;;;;5064575;28;20529;-72
2024/02/07 00:08:04;;;;;;;6.50;2.07;;;21.80;69.60;;;;;;5068071;28;20269;-74
2024/02/07 00:10:32;;;;;;;11.27;1.80;;;21.60;69.50;;;;;;5063088;28;20220;-74
2024/02/07 00:12:59;;;;;;;10.63;1.97;;;21.70;69.80;;;;;;5061151;28;20555;-74
2024/02/07 00:15:26;;;;;;;13.63;2.20;;;21.80;69.70;;;;;;5063830;28;20179;-73
2024/02/07 00:17:54;;;;;;;15.40;2.37;;;21.80;69.50;;;;;;5069843;28;20653;-73
2024/02/07 00:20:21;;;;;;;11.57;2.50;;;21.90;69.40;;;;;;5065246;28;20650;-73
2024/02/07 00:22:49;;;;;;;17.43;2.83;;;22.30;69.20;;;;;;5059475;28;20571;-75
2024/02/07 00:25:16;;;;;;;10.13;1.77;;;22.40;67.80;;;;;;5071048;28;20259;-75
2024/02/07 00:27:44;;;;;;;11.23;2.40;;;22.50;67.80;;;;;;5069380;28;20182;-75
2024/02/07 00:30:11;;;;;;;11.63;1.90;;;22.50;67.50;;;;;;5065853;28;20668;-73
2024/02/07 00:32:38;;;;;;;7.77;2.23;;;22.60;67.10;;;;;;5063393;28;20207;-73
2024/02/07 00:35:07;;;;;;;7.37;2.10;;;22.70;67.10;;;;;;5073216;28;20867;-75
2024/02/07 00:37:34;;;;;;;11.20;2.10;;;22.80;67.00;;;;;;5070071;28;20531;-74
2024/02/07 00:40:02;;;;;;;15.77;2.47;;;23.00;66.20;;;;;;5074149;28;20686;-73
2024/02/07 00:42:29;;;;;;;11.93;2.60;;;23.00;66.30;;;;;;5064658;28;20192;-73
2024/02/07 00:44:56;;;;;;;11.63;2.17;;;23.20;66.30;;;;;;5062452;28;20642;-74
2024/02/07 00:47:23;;;;;;;11.83;2.00;;;23.70;65.20;;;;;;5078030;28;20190;-75
2024/02/07 00:49:51;;;;;;;9.07;1.80;;;23.80;64.10;;;;;;5067966;28;20229;-74
2024/02/07 00:52:20;;;;;;;11.37;2.27;;;23.80;63.80;;;;;;5064936;28;20657;-74
2024/02/07 00:54:47;;;;;;;11.43;2.10;;;23.50;64.70;;;;;;5076230;28;20223;-73
2024/02/07 00:57:14;;;;;;;7.13;1.80;;;23.40;64.70;;;;;;5074440;28;20172;-74
2024/02/07 00:59:42;;;;;;;8.37;2.07;;;23.80;64.10;;;;;;5075196;28;20198;-76
2024/02/07 01:02:09;;;;;;;11.13;2.40;;;23.90;63.60;;;;;;5074454;28;20183;-75
2024/02/07 01:04:39;;;;;;;12.73;2.77;;;23.80;63.30;;;;;;5074267;28;20190;-76
2024/02/07 01:07:07;;;;;;;12.87;2.27;;;23.50;64.70;;;;;;5072370;28;20175;-72
2024/02/07 01:09:34;;;;;;;13.73;1.90;;;23.60;65.40;;;;;;5070213;28;20307;-73
2024/02/07 01:12:05;;;;;;;14.33;2.30;;;23.60;65.00;;;;;;5072574;28;20258;-74
2024/02/07 01:14:33;;;;;;;10.70;2.27;;;23.80;64.50;;;;;;5074104;28;20207;-73
2024/02/07 01:17:00;;;;;;;12.73;2.03;;;23.80;65.00;;;;;;5076571;28;20676;-75
2024/02/07 01:19:27;;;;;;;9.10;2.03;;;24.00;64.30;;;;;;5075687;28;20175;-76
2024/02/07 01:21:55;;;;;;;8.73;2.30;;;24.10;63.70;;;;;;5070803;28;20225;-76
2024/02/07 01:24:23;;;;;;;8.10;2.17;;;23.80;63.70;;;;;;5070316;28;20186;-72
2024/02/07 01:26:50;;;;;;;14.80;2.67;;;23.60;64.60;;;;;;5074412;28;20171;-74
2024/02/07 01:29:17;;;;;;;7.60;1.90;;;23.90;63.90;;;;;;5075239;28;20653;-75
2024/02/07 01:31:46;;;;;;;10.20;2.30;;;23.90;64.20;;;;;;5074341;28;20197;-74
2024/02/07 01:34:13;;;;;;;10.53;2.37;;;24.30;63.90;;;;;;5073728;28;20234;-74
2024/02/07 01:36:46;;;;;;;13.43;2.10;;;24.50;62.60;;;;;;5073173;28;20246;-73
2024/02/07 01:39:18;;;;;;;9.40;2.10;;;24.30;63.20;;;;;;5070624;28;20272;-73
2024/02/07 01:41:57;;;;;;;14.10;2.40;;;24.50;62.50;;;;;;5072128;28;20209;-72
2024/02/07 01:44:28;;;;;;;12.33;1.90;;;24.50;62.50;;;;;;5065361;28;20724;-76
2024/02/07 01:47:14;;;;;;;10.70;1.73;;;24.70;62.40;;;;;;5071826;28;20192;-73
2024/02/07 01:49:52;;;;;;;7.87;2.00;;;25.20;61.60;;;;;;5060626;28;20186;-73
2024/02/07 01:52:22;;;;;;;10.87;2.00;;;25.30;60.70;;;;;;5066189;28;20198;-75
2024/02/07 01:54:52;;;;;;;8.90;1.70;;;24.80;61.30;;;;;;5065264;28;20276;-75
2024/02/07 01:57:20;;;;;;;10.70;1.93;;;25.20;61.20;;;;;;5064171;28;20229;-73
2024/02/07 01:59:49;;;;;;;9.90;2.40;;;24.80;61.40;;;;;;5065694;28;20179;-73
2024/02/07 02:02:17;;;;;;;10.47;2.40;;;25.30;61.30;;;;;;5067996;28;20186;-72
2024/02/07 02:04:45;;;;;;;13.83;2.20;;;25.30;61.20;;;;;;5066606;28;20183;-72
2024/02/07 02:07:12;;;;;;;10.47;2.50;;;24.80;61.50;;;;;;5063197;28;20673;-76
2024/02/07 02:09:40;;;;;;;11.97;2.70;;;24.70;62.80;;;;;;5064395;28;20625;-74
2024/02/07 02:12:09;;;;;;;12.47;2.30;;;25.20;61.20;;;;;;5067196;28;20192;-73
2024/02/07 02:14:36;;;;;;;12.27;2.20;;;25.10;62.10;;;;;;5064512;28;20260;-73
2024/02/07 02:17:04;;;;;;;10.77;2.67;;;24.90;61.90;;;;;;5067985;28;20240;-73
2024/02/07 02:19:31;;;;;;;9.57;2.27;;;24.80;62.60;;;;;;5069704;28;20550;-71
2024/02/07 02:22:49;;;;;;;18.53;2.27;;;24.90;62.20;;;;;;5065942;28;20178;-74
2024/02/07 02:25:53;;;;;;;16.47;2.33;;;25.00;61.60;;;;;;5069531;28;20175;-76
2024/02/07 02:28:45;;;;;;;11.07;2.03;;;24.80;62.20;;;;;;5067274;28;20182;-74
2024/02/07 02:31:16;;;;;;;8.23;1.87;;;24.90;61.90;;;;;;5067317;28;20187;-73
2024/02/07 02:33:46;;;;;;;16.00;2.50;;;25.10;62.10;;;;;;5061660;28;20207;-72
2024/02/07 02:36:13;;;;;;;12.13;2.57;;;25.00;62.10;;;;;;5069135;28;20219;-74
2024/02/07 02:38:41;;;;;;;8.13;2.00;;;25.20;62.40;;;;;;5063768;28;20237;-72
2024/02/07 02:41:08;;;;;;;9.50;1.97;;;25.30;61.40;;;;;;5062124;28;20269;-71
2024/02/07 02:43:40;;;;;;;11.73;2.03;;;25.30;61.80;;;;;;5062553;28;20187;-71
2024/02/07 02:46:09;;;;;;;12.63;1.80;;;25.30;61.20;;;;;;5061647;28;20599;-71
2024/02/07 02:48:37;;;;;;;8.00;1.80;;;25.60;61.30;;;;;;5065958;28;20179;-72
2024/02/07 02:51:05;;;;;;;13.50;2.23;;;25.60;60.80;;;;;;5062762;28;20203;-73
2024/02/07 02:53:32;;;;;;;12.03;2.17;;;25.30;61.20;;;;;;5065306;28;20202;-70
2024/02/07 02:56:03;;;;;;;7.17;1.57;;;25.20;61.90;;;;;;5062056;28;20543;-69
2024/02/07 02:58:30;;;;;;;10.23;2.37;;;24.90;62.80;;;;;;5067293;28;20225;-72
2024/02/07 03:00:58;;;;;;;11.23;2.23;;;24.80;62.20;;;;;;5061422;28;20176;-73
2024/02/07 03:03:26;;;;;;;10.83;2.30;;;25.10;62.00;;;;;;5060742;28;20180;-73
2024/02/07 03:06:00;;;;;;;13.03;1.90;;;25.50;60.40;;;;;;5066895;28;20240;-77
2024/02/07 03:08:39;;;;;;;11.37;1.97;;;25.80;59.00;;;;;;5065953;28;20194;-73
2024/02/07 03:11:08;;;;;;;7.97;1.73;;;25.70;59.00;;;;;;5064758;28;20191;-73
2024/02/07 03:13:37;;;;;;;9.60;1.97;;;25.30;60.80;;;;;;5067262;28;20214;-69
2024/02/07 03:16:11;;;;;;;8.97;2.00;;;25.30;60.90;;;;;;5057330;28;20556;-71
2024/02/07 03:18:40;;;;;;;12.77;2.03;;;24.80;62.10;;;;;;5061373;28;20228;-70
2024/02/07 03:21:08;;;;;;;11.73;2.00;;;24.70;62.20;;;;;;5064988;28;20241;-70
2024/02/07 03:23:36;;;;;;;8.40;1.87;;;24.50;62.70;;;;;;5062943;28;20183;-71
2024/02/07 03:26:06;;;;;;;9.03;1.60;;;24.60;63.60;;;;;;5063143;28;20215;-73
2024/02/07 03:28:33;;;;;;;9.43;1.73;;;24.60;62.70;;;;;;5063443;28;20282;-73
2024/02/07 03:31:01;;;;;;;11.03;2.13;;;25.00;62.50;;;;;;5068080;28;20269;-71
2024/02/07 03:33:31;;;;;;;11.53;1.67;;;25.80;61.60;;;;;;5061613;28;20204;-72
2024/02/07 03:35:59;;;;;;;6.97;1.37;;;26.00;59.90;;;;;;4957693;28;3057712;-73
2024/02/07 03:38:27;;;;;;;9.80;1.80;;;26.20;59.80;;;;;;5063022;28;21292;-74
2024/02/07 03:40:55;;;;;;;7.10;1.70;;;26.10;59.70;;;;;;5063927;28;20187;-73
2024/02/07 03:43:23;;;;;;;7.83;1.63;;;26.00;60.50;;;;;;5064873;28;20267;-71
2024/02/07 03:45:52;;;;;;;9.63;1.90;;;25.60;62.20;;;;;;5060206;28;20187;-72
2024/02/07 03:48:23;;;;;;;8.57;1.90;;;25.20;61.80;;;;;;5065032;28;20643;-74
2024/02/07 03:50:51;;;;;;;11.90;2.03;;;24.70;64.00;;;;;;5066007;28;20191;-70
2024/02/07 03:53:19;;;;;;;12.47;2.63;;;24.70;64.50;;;;;;5064594;28;20210;-72
2024/02/07 03:55:49;;;;;;;11.73;2.17;;;24.60;64.50;;;;;;5065448;28;20224;-78
2024/02/07 03:58:19;;;;;;;14.50;2.30;;;24.40;65.20;;;;;;5061278;28;20195;-73
2024/02/07 04:00:47;;;;;;;7.60;1.70;;;24.30;65.70;;;;;;5063235;28;20184;-71
2024/02/07 04:03:14;;;;;;;8.17;1.67;;;24.50;65.80;;;;;;5063472;28;20256;-71
2024/02/07 04:05:43;;;;;;;13.87;2.33;;;24.10;66.90;;;;;;5066593;28;20194;-71
2024/02/07 04:08:10;;;;;;;11.43;1.90;;;23.90;67.70;;;;;;5066745;28;20187;-73
2024/02/07 04:10:51;;;;;;;7.57;1.83;;;23.60;68.30;;;;;;5066069;28;20638;-76
2024/02/07 05:16:29;;;;;;;12.67;2.43;;;22.40;75.30;;;;;;5073916;28;20248;-71
2024/02/07 05:19:01;;;;;;;7.57;2.07;;;22.40;75.80;;;;;;5074056;28;20188;-71
2024/02/07 05:21:29;;;;;;;14.07;2.27;;;22.60;75.80;;;;;;5074210;28;20247;-72
2024/02/07 05:23:57;;;;;;;15.07;2.17;;;22.80;75.00;;;;;;5071821;28;20653;-72
2024/02/07 05:26:24;;;;;;;20.73;2.80;;;22.90;74.40;;;;;;5073350;28;20641;-76
2024/02/07 05:28:51;;;;;;;9.13;1.83;;;22.90;73.70;;;;;;5074768;28;20312;-75
2024/02/07 05:31:19;;;;;;;18.97;2.17;;;22.80;73.90;;;;;;5073811;28;20666;-74
2024/02/07 05:33:46;;;;;;;9.57;2.50;;;22.60;74.50;;;;;;5074150;28;20219;-72
2024/02/07 05:36:13;;;;;;;16.40;2.77;;;22.40;75.90;;;;;;5074041;28;20235;-73
2024/02/07 05:38:41;;;;;;;14.43;2.60;;;22.20;77.30;;;;;;5072915;28;20194;-76
2024/02/07 05:41:18;;;;;;;12.27;2.30;;;22.00;77.90;;;;;;5069715;28;20176;-71
2024/02/07 05:43:45;;;;;;;10.90;2.43;;;22.00;78.30;;;;;;5073530;28;20249;-72
2024/02/07 05:46:12;;;;;;;11.00;2.27;;;22.00;78.20;;;;;;5073413;28;20657;-73
2024/02/07 05:48:40;;;;;;;11.77;2.07;;;22.10;78.30;;;;;;5073869;28;20638;-73
2024/02/07 05:51:17;;;;;;;12.53;2.40;;;21.90;78.10;;;;;;5075864;28;20503;-75
2024/02/07 05:53:45;;;;;;;15.27;2.73;;;21.90;78.50;;;;;;5070660;28;20222;-75
2024/02/07 05:56:12;;;;;;;20.20;2.97;;;22.10;78.70;;;;;;5072780;28;20187;-72
2024/02/07 05:58:40;;;;;;;13.43;2.90;;;22.20;77.60;;;;;;5073100;28;20190;-71
2024/02/07 06:01:11;;;;;;;17.23;2.57;;;22.20;77.50;;;;;;5072054;28;20171;-74
2024/02/07 06:03:39;;;;;;;10.30;2.00;;;22.30;78.00;;;;;;5072738;28;20238;-72
2024/02/07 06:06:08;;;;;;;16.83;3.07;;;22.20;77.90;;;;;;5067103;28;20180;-79
2024/02/07 06:08:35;;;;;;;8.60;2.30;;;22.20;78.60;;;;;;5070135;28;20191;-74
2024/02/07 06:11:03;;;;;;;15.40;3.17;;;22.20;79.70;;;;;;5064273;28;20271;-74
2024/02/07 06:13:31;;;;;;;15.23;2.73;;;22.20;80.10;;;;;;5061196;28;20640;-74
2024/02/07 06:15:58;;;;;;;14.33;2.57;;;21.90;80.60;;;;;;5058201;28;20635;-72
2024/02/07 06:18:26;;;;;;;13.83;2.53;;;22.10;80.40;;;;;;5063728;28;20262;-73
2024/02/07 06:20:53;;;;;;;19.07;2.50;;;22.10;79.50;;;;;;5062828;28;20548;-71
2024/02/07 06:23:21;;;;;;;15.13;2.97;;;22.30;79.10;;;;;;5063534;28;20168;-73
2024/02/07 06:25:48;;;;;;;17.93;2.40;;;22.30;78.30;;;;;;5065042;28;20274;-72
2024/02/07 06:28:16;;;;;;;15.37;2.53;;;22.50;77.90;;;;;;5071290;28;20194;-71
2024/02/07 06:30:44;;;;;;;11.20;2.23;;;22.60;77.60;;;;;;5068481;28;20581;-72
2024/02/07 06:33:12;;;;;;;13.57;2.30;;;22.80;77.10;;;;;;5065430;28;20175;-72
2024/02/07 06:35:39;;;;;;;16.47;3.47;;;22.60;76.70;;;;;;5066762;28;20705;-73
2024/02/07 06:38:07;;;;;;;16.03;3.07;;;22.40;77.50;;;;;;5068746;28;20187;-71
2024/02/07 06:40:34;;;;;;;14.47;2.23;;;22.30;77.90;;;;;;5068004;28;20183;-75
2024/02/07 06:43:03;;;;;;;17.00;3.33;;;22.30;78.10;;;;;;5063824;28;20268;-71
2024/02/07 06:45:31;;;;;;;12.47;2.83;;;22.10;79.00;;;;;;5070064;28;20187;-71
2024/02/07 06:47:58;;;;;;;10.77;2.63;;;22.10;79.40;;;;;;5064846;28;20176;-71
2024/02/07 06:50:25;;;;;;;13.93;2.73;;;22.00;79.40;;;;;;5072440;28;20176;-71
2024/02/07 06:52:53;;;;;;;10.93;2.50;;;22.00;79.00;;;;;;5066999;28;20210;-72
2024/02/07 06:55:20;;;;;;;13.93;2.83;;;22.00;78.90;;;;;;5068958;28;20304;-72
2024/02/07 06:57:47;;;;;;;16.43;2.40;;;21.90;79.70;;;;;;5074388;28;20285;-70
2024/02/07 07:00:16;;;;;;;10.70;2.43;;;21.80;80.10;;;;;;5061274;28;20184;-71
2024/02/07 07:02:46;;;;;;;15.40;3.17;;;21.80;80.40;;;;;;5064139;28;20182;-71
2024/02/07 07:05:13;;;;;;;16.30;2.40;;;21.70;80.40;;;;;;5066348;28;20273;-71
2024/02/07 07:07:41;;;;;;;14.70;2.73;;;21.70;80.60;;;;;;5063903;28;20179;-72
2024/02/07 07:10:08;;;;;;;14.47;2.63;;;21.80;80.40;;;;;;5063777;28;20187;-71
2024/02/07 07:12:36;;;;;;;10.93;2.27;;;21.80;80.30;;;;;;5070036;28;20178;-71
2024/02/07 07:15:03;;;;;;;14.83;2.90;;;21.70;80.80;;;;;;5062029;28;20241;-72
2024/02/07 07:17:31;;;;;;;13.50;2.10;;;21.80;80.40;;;;;;5063908;28;20183;-71
2024/02/07 07:19:58;;;;;;;12.27;2.57;;;21.80;80.60;;;;;;5060469;28;20213;-71
2024/02/07 07:22:25;;;;;;;15.57;2.67;;;21.80;80.60;;;;;;5057777;28;20184;-72
2024/02/07 07:24:52;;;;;;;12.83;2.90;;;21.70;81.20;;;;;;5065797;28;20179;-71
2024/02/07 07:27:20;;;;;;;16.27;2.67;;;21.70;81.80;;;;;;5062832;28;20195;-72
2024/02/07 07:29:49;;;;;;;14.07;2.90;;;21.70;82.80;;;;;;5064095;28;22080;-72
2024/02/07 07:32:17;;;;;;;20.10;3.97;;;21.30;82.40;;;;;;5064350;28;20184;-70
2024/02/07 07:34:44;;;;;;;24.07;3.50;;;21.30;83.80;;;;;;5067276;28;20343;-71
2024/02/07 07:37:11;;;;;;;16.77;3.20;;;21.30;84.30;;;;;;5066830;28;20206;-70
2024/02/07 07:39:39;;;;;;;17.60;3.47;;;21.30;83.90;;;;;;5067402;28;20645;-71
2024/02/07 07:42:12;;;;;;;18.57;3.00;;;21.30;83.60;;;;;;5067234;28;20186;-71
2024/02/07 07:44:42;;;;;;;15.83;3.83;;;21.30;83.40;;;;;;5061930;28;20188;-70
2024/02/07 07:47:24;;;;;;;16.03;4.00;;;21.40;82.50;;;;;;5058166;28;20197;-71
2024/02/07 07:49:51;;;;;;;17.60;3.90;;;21.40;82.20;;;;;;5067752;28;20183;-71
2024/02/07 07:52:18;;;;;;;15.33;3.10;;;21.40;81.90;;;;;;5066675;28;20192;-71
2024/02/07 07:54:46;;;;;;;19.43;3.30;;;21.50;82.00;;;;;;5060809;28;20223;-71
2024/02/07 07:57:14;;;;;;;16.97;3.87;;;21.50;81.70;;;;;;5067561;28;20214;-71
2024/02/07 07:59:41;;;;;;;12.00;3.10;;;21.60;81.50;;;;;;5063940;28;20202;-71
2024/02/07 08:02:09;;;;;;;13.77;3.20;;;21.60;80.70;;;;;;5061115;28;20205;-72
2024/02/07 08:04:37;;;;;;;12.60;2.77;;;21.60;79.70;;;;;;5069609;28;20190;-71
2024/02/07 08:07:04;;;;;;;10.73;2.50;;;21.70;78.70;;;;;;5060048;28;20180;-71
2024/02/07 08:09:31;;;;;;;11.87;2.87;;;21.70;77.30;;;;;;5064416;28;20192;-73
2024/02/07 08:11:58;;;;;;;15.20;3.03;;;21.80;75.30;;;;;;5072416;28;20183;-73
2024/02/07 08:14:26;;;;;;;15.87;2.60;;;21.80;74.60;;;;;;5070409;28;20214;-72
2024/02/07 08:16:53;;;;;;;15.73;3.27;;;21.90;73.60;;;;;;5074396;28;20179;-72
2024/02/07 08:19:20;;;;;;;10.60;2.63;;;21.90;73.30;;;;;;5076674;28;20184;-73
2024/02/07 08:21:48;;;;;;;12.90;2.90;;;22.00;73.10;;;;;;5074016;28;20515;-73
2024/02/07 08:24:15;;;;;;;14.93;2.83;;;22.00;72.90;;;;;;5073921;28;20575;-72
2024/02/07 08:26:42;;;;;;;13.03;3.00;;;22.00;72.40;;;;;;5075023;28;20590;-73
2024/02/07 08:29:10;;;;;;;10.67;2.60;;;22.10;72.10;;;;;;5073419;28;20203;-73
2024/02/07 08:31:39;;;;;;;13.77;2.80;;;22.20;71.40;;;;;;5075285;28;20195;-72
2024/02/07 08:34:06;;;;;;;13.07;2.67;;;22.20;71.20;;;;;;5074478;28;20757;-71
2024/02/07 08:36:33;;;;;;;13.93;2.60;;;22.20;71.20;;;;;;5073809;28;20588;-73
2024/02/07 08:39:01;;;;;;;11.40;2.20;;;22.20;70.80;;;;;;5075311;28;20195;-72
2024/02/07 08:41:28;;;;;;;15.97;2.30;;;22.20;70.60;;;;;;5071864;28;20236;-72
2024/02/07 08:43:56;;;;;;;11.03;2.10;;;22.20;70.10;;;;;;5073578;28;20190;-72
2024/02/07 08:46:23;;;;;;;18.73;2.70;;;22.20;70.10;;;;;;5068868;28;20245;-72
2024/02/07 08:48:50;;;;;;;13.07;2.70;;;22.30;69.90;;;;;;5074794;28;20179;-71
2024/02/07 08:51:18;;;;;;;9.63;2.17;;;22.20;69.50;;;;;;5074591;28;20217;-72
2024/02/07 08:53:47;;;;;;;7.67;2.33;;;22.20;68.80;;;;;;5070806;28;20203;-72
2024/02/07 08:56:15;;;;;;;12.17;2.47;;;22.20;69.00;;;;;;5078150;28;20244;-73
2024/02/07 08:58:42;;;;;;;13.90;2.40;;;22.20;69.10;;;;;;5075461;28;20241;-73
2024/02/07 09:01:10;;;;;;;15.03;2.40;;;22.20;69.00;;;;;;5074222;28;20191;-74
2024/02/07 09:03:37;;;;;;;11.00;2.03;;;22.20;68.70;;;;;;5076865;28;20284;-72
2024/02/07 09:06:04;;;;;;;9.50;2.20;;;22.10;68.50;;;;;;5068760;28;20321;-71
2024/02/07 09:08:32;;;;;;;8.40;2.27;;;22.10;68.70;;;;;;5075630;28;20176;-73
2024/02/07 09:10:59;;;;;;;8.20;2.00;;;22.10;68.90;;;;;;5078525;28;20171;-72
2024/02/07 09:13:26;;;;;;;9.47;2.00;;;22.10;68.70;;;;;;5077509;28;20175;-75
2024/02/07 09:15:54;;;;;;;10.80;1.90;;;22.10;68.60;;;;;;5073804;28;20191;-72
2024/02/07 09:18:21;;;;;;;14.93;2.60;;;22.10;68.60;;;;;;5073303;28;20180;-72
2024/02/07 09:20:49;;;;;;;13.80;2.20;;;22.10;68.70;;;;;;5074154;28;20280;-73
2024/02/07 09:23:17;;;;;;;8.97;2.17;;;22.10;68.50;;;;;;5077327;28;20183;-72
2024/02/07 09:25:44;;;;;;;10.43;1.80;;;22.00;68.00;;;;;;5072909;28;20224;-74
2024/02/07 09:28:12;;;;;;;10.97;1.87;;;22.10;67.30;;;;;;5073939;28;20207;-72
2024/02/07 09:30:39;;;;;;;11.73;2.50;;;22.20;67.10;;;;;;5073299;28;20538;-72
2024/02/07 09:33:07;;;;;;;10.53;1.97;;;22.10;66.90;;;;;;5077168;28;20188;-73
2024/02/07 09:35:35;;;;;;;13.30;2.30;;;22.10;67.00;;;;;;5074227;28;20252;-73
2024/02/07 09:38:03;;;;;;;10.23;2.33;;;22.20;67.20;;;;;;5070525;28;20180;-72
2024/02/07 09:40:31;;;;;;;12.47;2.40;;;22.10;66.90;;;;;;5072974;28;20195;-72
2024/02/07 09:43:01;;;;;;;13.00;2.40;;;22.10;66.70;;;;;;5080368;28;20533;-72
2024/02/07 09:45:36;;;;;;;8.73;2.40;;;22.10;66.70;;;;;;5075127;28;20186;-71
2024/02/07 09:48:22;;;;;;;11.73;2.47;;;22.10;66.90;;;;;;5074331;28;20269;-72
2024/02/07 09:50:53;;;;;;;8.33;2.10;;;22.10;67.00;;;;;;5068567;28;20674;-71
2024/02/07 09:53:22;;;;;;;12.47;2.03;;;22.10;67.30;;;;;;5071959;28;20188;-71
2024/02/07 09:55:51;;;;;;;8.93;2.10;;;22.10;67.10;;;;;;5068702;28;20363;-77
2024/02/07 09:58:20;;;;;;;8.23;2.07;;;22.10;67.00;;;;;;5074036;28;20186;-72
2024/02/07 10:00:52;;;;;;;9.30;2.10;;;22.10;67.10;;;;;;5073350;28;20214;-71
2024/02/07 10:03:25;;;;;;;8.83;1.70;;;22.10;66.70;;;;;;5073014;28;20199;-72
2024/02/07 10:06:00;;;;;;;6.73;2.07;;;22.10;66.50;;;;;;5075685;28;20190;-72
2024/02/07 10:08:28;;;;;;;8.67;2.13;;;22.10;66.40;;;;;;5068473;28;20186;-71
2024/02/07 10:10:55;;;;;;;10.70;2.20;;;22.00;66.30;;;;;;5072569;28;20187;-72
2024/02/07 10:13:25;;;;;;;11.13;2.17;;;22.10;66.50;;;;;;5073660;28;20187;-73
2024/02/07 10:15:53;;;;;;;15.23;2.27;;;22.10;66.70;;;;;;5069399;28;20189;-71
2024/02/07 10:18:21;;;;;;;5.57;1.77;;;22.10;66.90;;;;;;5071547;28;20266;-71
2024/02/07 10:20:53;;;;;;;9.67;2.23;;;22.00;66.60;;;;;;5071116;28;20191;-72
2024/02/07 10:23:25;;;;;;;10.40;2.00;;;22.10;66.70;;;;;;5073135;28;20599;-72
2024/02/07 10:25:59;;;;;;;7.23;1.83;;;22.10;66.70;;;;;;5069129;28;20179;-72
2024/02/07 10:28:26;;;;;;;9.80;1.60;;;22.10;67.00;;;;;;5071986;28;20591;-71
2024/02/07 10:31:02;;;;;;;7.53;2.47;;;22.10;66.90;;;;;;5071732;28;20175;-72
2024/02/07 10:33:38;;;;;;;12.80;2.80;;;22.00;66.90;;;;;;5076497;28;20297;-73
2024/02/07 10:36:06;;;;;;;8.50;2.37;;;22.10;66.80;;;;;;5066536;28;20617;-71
2024/02/07 10:38:35;;;;;;;9.33;1.93;;;22.00;66.80;;;;;;5071390;28;20195;-72
2024/02/07 10:41:03;;;;;;;12.20;2.50;;;22.00;66.80;;;;;;5072225;28;20175;-72
2024/02/07 10:43:38;;;;;;;6.97;1.70;;;21.90;67.00;;;;;;5071703;28;20210;-72
2024/02/07 10:46:09;;;;;;;9.43;2.03;;;21.90;67.20;;;;;;5070692;28;20179;-71
2024/02/07 10:48:38;;;;;;;8.57;1.53;;;22.00;67.30;;;;;;5073388;28;20183;-71
2024/02/07 10:51:06;;;;;;;7.73;1.73;;;21.90;67.10;;;;;;5071079;28;20190;-72
2024/02/07 10:53:33;;;;;;;6.27;1.57;;;21.90;67.30;;;;;;5069249;28;20191;-72
2024/02/07 10:56:02;;;;;;;9.00;1.87;;;21.90;67.10;;;;;;5071601;28;20232;-71
2024/02/07 10:58:32;;;;;;;10.87;2.10;;;22.00;66.70;;;;;;5074141;28;20175;-71
2024/02/07 11:01:00;;;;;;;9.43;2.00;;;22.00;66.70;;;;;;5072623;28;20183;-71
2024/02/07 11:03:30;;;;;;;9.87;1.90;;;22.00;66.80;;;;;;5070981;28;20232;-72
2024/02/07 11:05:58;;;;;;;10.60;2.60;;;22.00;66.60;;;;;;5072662;28;20190;-73
2024/02/07 11:08:27;;;;;;;5.60;1.90;;;22.00;66.50;;;;;;5071866;28;20225;-74
2024/02/07 11:10:56;;;;;;;7.97;2.07;;;22.00;66.40;;;;;;5068235;28;20183;-72
2024/02/07 11:13:24;;;;;;;9.33;2.40;;;22.00;66.40;;;;;;5071899;28;20183;-75
2024/02/07 11:15:52;;;;;;;11.30;2.20;;;22.00;66.30;;;;;;5067273;28;20665;-72
2024/02/07 11:18:20;;;;;;;7.90;2.10;;;22.00;66.20;;;;;;5071832;28;20194;-73
2024/02/07 11:20:50;;;;;;;7.97;1.90;;;22.00;65.90;;;;;;5068265;28;20263;-71
2024/02/07 11:23:31;;;;;;;10.43;2.40;;;22.00;65.60;;;;;;5070005;28;20684;-73
2024/02/07 11:26:00;;;;;;;11.33;1.73;;;21.90;65.40;;;;;;5073899;28;20657;-74
2024/02/07 11:28:29;;;;;;;6.27;1.43;;;22.00;65.40;;;;;;5075746;28;20653;-72
2024/02/07 11:31:01;;;;;;;7.97;1.73;;;21.90;65.10;;;;;;5072822;28;20669;-74
2024/02/07 11:33:33;;;;;;;6.93;1.70;;;21.90;65.20;;;;;;5071112;28;20202;-71
2024/02/07 11:36:08;;;;;;;8.13;1.97;;;22.00;65.00;;;;;;5065076;28;20237;-74
2024/02/07 11:38:38;;;;;;;8.40;1.50;;;21.90;65.20;;;;;;5071335;28;20206;-72
2024/02/07 11:41:07;;;;;;;5.70;1.83;;;21.90;65.00;;;;;;5072925;28;20537;-72
2024/02/07 11:43:37;;;;;;;10.03;2.40;;;21.90;64.90;;;;;;5071645;28;20179;-73
2024/02/07 11:46:07;;;;;;;10.67;1.80;;;21.90;64.60;;;;;;5077031;28;20179;-73
2024/02/07 11:48:42;;;;;;;9.83;1.70;;;21.90;63.80;;;;;;5075580;28;20183;-73
2024/02/07 11:51:11;;;;;;;6.97;1.70;;;21.90;63.50;;;;;;5075296;28;20273;-72
2024/02/07 11:53:42;;;;;;;9.60;1.87;;;21.90;63.60;;;;;;5074526;28;20183;-73
2024/02/07 11:56:11;;;;;;;7.73;1.50;;;21.90;63.40;;;;;;5075708;28;20186;-71
2024/02/07 11:58:43;;;;;;;8.03;2.30;;;21.90;63.50;;;;;;5078437;28;20235;-73
2024/02/07 12:01:14;;;;;;;4.97;1.57;;;21.90;63.90;;;;;;5076419;28;20216;-71
2024/02/07 12:03:41;;;;;;;9.27;2.20;;;21.90;64.40;;;;;;5075209;28;20187;-71
2024/02/07 12:06:13;;;;;;;7.37;1.70;;;21.80;64.60;;;;;;5075294;28;20195;-73
2024/02/07 12:08:41;;;;;;;9.03;1.70;;;21.80;64.90;;;;;;5077528;28;20676;-71
2024/02/07 12:11:09;;;;;;;9.70;1.90;;;21.80;65.10;;;;;;5076778;28;20266;-71
2024/02/07 12:13:36;;;;;;;15.17;2.17;;;21.80;65.50;;;;;;5077140;28;20187;-72
2024/02/07 12:16:09;;;;;;;8.00;1.97;;;21.80;65.70;;;;;;5075161;28;20236;-71
2024/02/07 12:18:37;;;;;;;7.33;1.83;;;21.80;65.90;;;;;;5074867;28;20208;-73
2024/02/07 12:21:05;;;;;;;7.70;1.90;;;21.80;66.00;;;;;;5072639;28;20179;-71
2024/02/07 12:23:34;;;;;;;12.20;2.40;;;21.80;66.20;;;;;;5074338;28;21085;-71
2024/02/07 12:26:03;;;;;;;11.93;2.13;;;21.80;66.60;;;;;;5074782;28;20240;-71
2024/02/07 12:28:31;;;;;;;8.17;1.57;;;21.80;67.00;;;;;;5077798;28;20200;-71
2024/02/07 12:30:59;;;;;;;10.10;1.87;;;21.80;66.90;;;;;;5074731;28;20180;-72
2024/02/07 12:33:28;;;;;;;9.87;2.10;;;21.80;67.30;;;;;;5074903;28;20224;-71
2024/02/07 12:35:57;;;;;;;12.67;2.00;;;21.80;67.50;;;;;;5070525;28;20231;-72
2024/02/07 12:38:25;;;;;;;8.40;1.67;;;21.70;67.50;;;;;;5077863;28;20300;-71
2024/02/07 12:40:54;;;;;;;4.60;1.40;;;21.70;67.10;;;;;;5066578;28;20208;-72
2024/02/07 12:43:28;;;;;;;9.17;1.70;;;21.70;67.30;;;;;;5075601;28;20175;-72
2024/02/07 12:45:58;;;;;;;8.20;1.67;;;21.70;67.20;;;;;;5066683;28;20201;-71
2024/02/07 12:48:26;;;;;;;12.20;2.53;;;21.70;67.40;;;;;;5076444;28;20187;-72
2024/02/07 12:50:58;;;;;;;9.93;1.70;;;21.60;67.40;;;;;;5065795;28;20196;-72
2024/02/07 12:53:25;;;;;;;10.13;2.13;;;21.70;67.30;;;;;;5079147;28;20229;-72
2024/02/07 12:55:52;;;;;;;9.70;1.60;;;21.60;67.00;;;;;;5086079;28;20210;-72
2024/02/07 12:58:20;;;;;;;7.00;1.73;;;21.60;66.80;;;;;;5076189;28;20195;-71
2024/02/07 13:00:47;;;;;;;9.53;1.90;;;21.60;67.00;;;;;;5074666;28;20202;-71
2024/02/07 13:03:15;;;;;;;8.63;1.77;;;21.50;67.00;;;;;;5073379;28;20175;-71
2024/02/07 13:05:42;;;;;;;10.20;2.00;;;21.60;66.80;;;;;;5078555;28;20179;-71
2024/02/07 13:08:11;;;;;;;10.97;1.97;;;21.50;66.90;;;;;;5074865;28;20191;-71
2024/02/07 13:10:39;;;;;;;12.93;1.80;;;21.50;66.00;;;;;;5071868;28;20668;-71
2024/02/07 13:13:06;;;;;;;11.47;1.83;;;21.50;65.70;;;;;;5074715;28;20179;-73
2024/02/07 13:15:33;;;;;;;9.13;2.03;;;21.60;65.70;;;;;;5074939;28;20238;-70
2024/02/07 13:18:02;;;;;;;11.17;1.87;;;21.60;65.20;;;;;;5072093;28;20194;-71
2024/02/07 13:20:29;;;;;;;8.53;2.10;;;21.50;65.10;;;;;;5074154;28;20183;-71
2024/02/07 13:22:57;;;;;;;8.43;1.70;;;21.60;64.80;;;;;;5072108;28;20221;-74
2024/02/07 13:25:24;;;;;;;7.97;2.10;;;21.60;64.80;;;;;;5074432;28;20269;-71
2024/02/07 13:27:51;;;;;;;10.50;2.40;;;21.60;65.20;;;;;;5073345;28;20190;-71
2024/02/07 13:30:19;;;;;;;7.53;2.10;;;21.50;65.60;;;;;;5074435;28;20187;-75
2024/02/07 13:32:46;;;;;;;10.97;2.03;;;21.50;65.80;;;;;;5073520;28;20223;-71
2024/02/07 13:35:15;;;;;;;12.90;1.53;;;21.50;66.10;;;;;;5073791;28;20235;-71
2024/02/07 13:37:42;;;;;;;13.43;2.77;;;21.50;66.30;;;;;;5076850;28;20213;-71
2024/02/07 13:40:11;;;;;;;8.77;1.93;;;21.60;66.40;;;;;;5073050;28;20255;-71
2024/02/07 13:42:39;;;;;;;9.50;1.67;;;21.50;66.10;;;;;;5073530;28;20206;-71
2024/02/07 13:45:06;;;;;;;8.23;1.87;;;21.50;66.00;;;;;;5073216;28;20190;-71
2024/02/07 13:47:34;;;;;;;14.43;2.33;;;21.50;66.00;;;;;;5071563;28;20176;-71
2024/02/07 13:50:01;;;;;;;9.87;1.80;;;21.50;65.90;;;;;;5071879;28;20182;-71
2024/02/07 13:52:28;;;;;;;14.57;2.00;;;21.50;65.90;;;;;;5065961;28;20184;-71